createdAt,value
2022-12-26T00:00:37.179Z,97898.25
2022-12-26T00:05:39.165Z,97879.47
2022-12-26T00:10:41.058Z,97868.66
2022-12-26T00:15:43.330Z,97874.91
2022-12-26T00:20:45.183Z,97867.91
2022-12-26T00:25:47.048Z,97885.09
2022-12-26T00:30:48.898Z,97874.97
2022-12-26T00:35:50.738Z,97870.19
2022-12-26T00:40:52.576Z,97868.59
2022-12-26T00:45:54.453Z,97874.78
2022-12-26T00:50:56.617Z,97863.91
2022-12-26T00:55:58.793Z,97866.59
2022-12-26T01:01:23.196Z,97856.47
2022-12-26T01:06:25.712Z,97860.00
2022-12-26T01:11:57.245Z,97859.97
2022-12-26T01:22:14.800Z,97875.56
2022-12-26T01:27:16.635Z,97858.47
2022-12-26T01:32:18.584Z,97856.13
2022-12-26T01:37:20.444Z,97853.06
2022-12-26T01:42:25.056Z,97839.06
2022-12-26T01:47:39.191Z,97847.25
2022-12-26T01:52:47.224Z,97846.88
2022-12-26T01:57:58.460Z,97845.31
2022-12-26T02:03:19.238Z,97844.56
2022-12-26T02:08:29.253Z,97842.59
2022-12-26T02:13:31.822Z,97826.63
2022-12-26T02:18:33.687Z,97837.91
2022-12-26T02:23:50.541Z,97833.59
2022-12-26T02:29:01.341Z,97849.16
2022-12-26T02:34:14.856Z,97848.31
2022-12-26T02:39:45.226Z,97842.06
2022-12-26T02:45:38.725Z,97833.50
2022-12-26T02:51:14.551Z,97842.03
2022-12-26T02:56:46.058Z,97837.78
2022-12-26T03:02:08.628Z,97843.22
2022-12-26T03:07:37.246Z,97835.78
2022-12-26T03:13:02.331Z,97832.69
2022-12-26T03:18:08.751Z,97819.06
2022-12-26T03:23:13.902Z,97832.28
2022-12-26T03:28:16.120Z,97840.44
2022-12-26T03:33:45.861Z,97838.13
2022-12-26T03:38:51.499Z,97836.56
2022-12-26T03:44:53.318Z,97832.69
2022-12-26T03:50:15.467Z,97834.63
2022-12-26T03:55:53.807Z,97841.66
2022-12-26T04:01:16.832Z,97849.81
2022-12-26T04:06:41.631Z,97853.69
2022-12-26T04:12:04.358Z,97870.44
2022-12-26T04:17:46.991Z,97875.09
2022-12-26T04:23:24.696Z,97896.06
2022-12-26T04:28:44.951Z,97911.66
2022-12-26T04:34:14.980Z,97901.16
2022-12-26T04:39:41.811Z,97903.13
2022-12-26T04:44:44.329Z,97887.16
2022-12-26T04:50:05.117Z,97886.38
2022-12-26T04:55:07.037Z,97890.28
2022-12-26T05:00:09.885Z,97890.25
2022-12-26T05:05:30.884Z,97894.91
2022-12-26T05:10:32.890Z,97890.59
2022-12-26T05:15:54.807Z,97873.47
2022-12-26T05:21:15.586Z,97887.91
2022-12-26T05:26:39.746Z,97877.81
2022-12-26T05:31:41.796Z,97882.50
2022-12-26T05:36:59.725Z,97873.53
2022-12-26T05:42:01.545Z,97888.31
2022-12-26T05:47:04.735Z,97879.00
2022-12-26T05:52:06.601Z,97880.94
2022-12-26T05:57:08.479Z,97870.03
2022-12-26T06:02:10.452Z,97859.84
2022-12-26T06:07:12.465Z,97869.97
2022-12-26T06:12:14.356Z,97866.03
2022-12-26T06:17:17.402Z,97859.44
2022-12-26T06:22:19.449Z,97861.78
2022-12-26T06:27:21.351Z,97838.81
2022-12-26T06:32:23.268Z,97844.25
2022-12-26T06:37:25.092Z,97855.94
2022-12-26T06:42:26.935Z,97853.59
2022-12-26T06:47:29.101Z,97857.50
2022-12-26T06:52:30.921Z,97902.66
2022-12-26T06:57:32.714Z,97900.34
2022-12-26T07:02:34.671Z,97910.44
2022-12-26T07:07:36.649Z,97918.16
2022-12-26T07:12:38.580Z,97922.81
2022-12-26T07:17:40.536Z,97921.25
2022-12-26T07:22:42.377Z,97912.25
2022-12-26T07:27:44.182Z,97918.84
2022-12-26T07:32:46.018Z,97910.25
2022-12-26T07:37:47.871Z,97917.25
2022-12-26T07:42:53.605Z,97931.22
2022-12-26T07:47:56.456Z,97934.28
2022-12-26T07:52:59.571Z,97913.25
2022-12-26T07:58:01.371Z,97927.25
2022-12-26T08:03:07.702Z,97955.22
2022-12-26T08:08:10.055Z,97942.03
2022-12-26T08:13:11.914Z,97945.19
2022-12-26T08:18:13.731Z,97946.00
2022-12-26T08:23:16.363Z,97932.88
2022-12-26T08:28:18.469Z,97955.59
2022-12-26T08:33:20.275Z,97949.47
2022-12-26T08:38:22.086Z,97953.38
2022-12-26T08:44:03.086Z,97945.25
2022-12-26T08:48:47.634Z,97924.63
2022-12-26T08:53:50.887Z,97948.00
2022-12-26T08:58:53.079Z,97935.59
2022-12-26T09:03:57.395Z,97941.84
2022-12-26T09:09:00.037Z,97936.47
2022-12-26T09:14:03.781Z,97934.13
2022-12-26T09:19:06.289Z,97931.03
2022-12-26T09:24:12.318Z,97957.19
2022-12-26T09:29:14.389Z,97968.94
2022-12-26T09:34:16.195Z,97958.44
2022-12-26T09:39:18.029Z,97975.63
2022-12-26T09:44:57.399Z,97966.25
2022-12-26T09:50:13.181Z,97976.06
2022-12-26T10:20:22.713Z,97932.75
2022-12-26T10:25:34.857Z,97961.22
2022-12-26T10:30:42.585Z,97949.50
2022-12-26T10:35:47.121Z,97939.38
2022-12-26T10:40:53.879Z,97932.75
2022-12-26T10:46:31.010Z,97932.72
2022-12-26T10:51:33.059Z,97928.03
2022-12-26T10:56:35.127Z,97920.66
2022-12-26T11:01:39.414Z,97938.19
2022-12-26T11:06:43.753Z,97932.34
2022-12-26T11:11:51.703Z,97938.97
2022-12-26T11:16:53.716Z,97937.81
2022-12-26T11:22:34.047Z,97928.06
2022-12-26T11:27:42.435Z,97928.47
2022-12-26T11:32:48.552Z,97931.97
2022-12-26T11:37:56.745Z,97942.91
2022-12-26T11:43:03.027Z,97932.75
2022-12-26T11:48:19.326Z,97923.00
2022-12-26T11:53:23.438Z,97906.22
2022-12-26T11:58:29.617Z,97898.44
2022-12-26T12:03:50.444Z,97923.38
2022-12-26T12:09:05.392Z,97917.91
2022-12-26T12:14:14.874Z,97916.72
2022-12-26T12:19:32.286Z,97915.53
2022-12-26T12:24:53.576Z,97897.97
2022-12-26T12:30:15.698Z,97910.84
2022-12-26T12:35:34.606Z,97897.97
2022-12-26T12:40:48.918Z,97900.69
2022-12-26T12:46:06.146Z,97889.00
2022-12-26T12:51:17.628Z,97899.91
2022-12-26T12:56:46.901Z,97890.53
2022-12-26T13:01:53.809Z,97902.22
2022-12-26T13:07:21.895Z,97920.91
2022-12-26T13:12:38.727Z,97934.91
2022-12-26T13:18:01.443Z,97940.75
2022-12-26T13:23:54.693Z,97979.22
2022-12-26T13:29:04.407Z,97977.34
2022-12-26T13:34:11.452Z,97977.50
2022-12-26T13:39:16.748Z,97983.59
2022-12-26T13:44:19.467Z,97966.72
2022-12-26T13:49:41.869Z,97964.47
2022-12-26T13:54:52.311Z,97976.78
2022-12-26T14:00:04.267Z,97962.56
2022-12-26T14:05:19.101Z,97981.53
2022-12-26T14:10:46.155Z,97964.63
2022-12-26T14:15:56.511Z,97966.66
2022-12-26T14:20:58.247Z,97976.09
2022-12-26T14:26:11.425Z,97978.00
2022-12-26T14:31:24.253Z,97968.66
2022-12-26T14:36:57.539Z,97965.63
2022-12-26T14:42:27.271Z,97969.47
2022-12-26T14:47:49.589Z,97984.16
2022-12-26T14:52:51.544Z,98002.09
2022-12-26T14:57:53.987Z,97997.84
2022-12-26T15:02:58.588Z,97995.53
2022-12-26T15:08:38.027Z,97999.81
2022-12-26T15:14:16.752Z,97998.84
2022-12-26T15:19:44.561Z,98015.03
2022-12-26T15:25:21.428Z,98008.06
2022-12-26T15:30:33.167Z,98015.72
2022-12-26T15:35:46.929Z,98007.09
2022-12-26T15:41:18.736Z,98022.16
2022-12-26T15:46:27.668Z,98013.97
2022-12-26T15:52:10.812Z,98020.28
2022-12-26T15:57:31.026Z,98023.44
2022-12-26T16:02:38.799Z,98014.22
2022-12-26T16:08:02.617Z,98021.22
2022-12-26T16:13:04.915Z,98023.56
2022-12-26T16:18:27.372Z,98015.59
2022-12-26T16:23:33.087Z,98020.97
2022-12-26T16:28:39.264Z,98038.72
2022-12-26T16:33:43.316Z,98035.56
2022-12-26T16:38:46.085Z,98039.56
2022-12-26T16:43:49.339Z,98033.50
2022-12-26T16:49:00.580Z,98035.13
2022-12-26T16:54:20.725Z,98035.13
2022-12-26T16:59:25.267Z,98032.66
2022-12-26T17:04:29.527Z,98043.41
2022-12-26T17:09:39.619Z,98044.47
2022-12-26T17:14:43.382Z,98032.34
2022-12-26T17:19:52.084Z,98037.69
2022-12-26T17:25:20.753Z,98029.22
2022-12-26T17:30:32.652Z,98021.13
2022-12-26T17:36:13.512Z,98026.19
2022-12-26T17:41:01.297Z,98023.94
2022-12-26T17:46:04.503Z,98026.28
2022-12-26T17:51:11.934Z,98025.50
2022-12-26T17:56:17.889Z,98020.91
2022-12-26T18:01:22.077Z,98027.94
2022-12-26T18:06:24.734Z,98022.09
2022-12-26T18:11:27.071Z,98041.53
2022-12-26T18:16:30.329Z,98024.06
2022-12-26T18:21:32.434Z,98014.03
2022-12-26T18:26:35.315Z,98005.56
2022-12-26T18:31:39.690Z,98011.75
2022-12-26T18:36:43.241Z,98035.78
2022-12-26T18:41:45.969Z,98039.50
2022-12-26T18:46:48.070Z,98039.81
2022-12-26T18:51:50.321Z,98039.66
2022-12-26T18:56:52.453Z,98021.28
2022-12-26T19:01:54.504Z,98021.50
2022-12-26T19:06:56.614Z,98004.06
2022-12-26T19:11:59.116Z,98007.44
2022-12-26T19:17:01.101Z,98017.09
2022-12-26T19:22:03.342Z,97999.13
2022-12-26T19:27:05.612Z,98011.38
2022-12-26T19:32:07.848Z,98003.66
2022-12-26T19:37:10.170Z,98018.31
2022-12-26T19:42:12.360Z,98003.50
2022-12-26T19:47:14.764Z,97998.06
2022-12-26T19:52:16.840Z,97999.34
2022-12-26T19:57:19.169Z,98012.81
2022-12-26T20:02:21.661Z,98023.66
2022-12-26T20:07:23.806Z,98040.31
2022-12-26T20:12:26.358Z,98068.50
2022-12-26T20:17:28.259Z,98095.25
2022-12-26T20:22:30.293Z,98103.78
2022-12-26T20:27:33.175Z,98125.19
2022-12-26T20:32:35.236Z,98120.06
2022-12-26T20:37:37.154Z,98152.97
2022-12-26T20:42:39.044Z,98170.72
2022-12-26T20:47:40.930Z,98151.13
2022-12-26T20:52:42.747Z,98138.16
2022-12-26T20:57:44.966Z,98077.63
2022-12-26T21:02:47.462Z,98073.09
2022-12-26T21:07:49.489Z,98087.25
2022-12-26T21:12:51.631Z,98133.53
2022-12-26T21:17:53.685Z,98159.16
2022-12-26T21:22:55.666Z,98161.44
2022-12-26T21:27:59.463Z,98165.88
2022-12-26T21:33:01.546Z,98174.97
2022-12-26T21:38:03.489Z,98173.72
2022-12-26T21:43:05.381Z,98180.31
2022-12-26T21:48:08.178Z,98216.91
2022-12-26T21:53:10.429Z,98213.41
2022-12-26T21:58:12.499Z,98242.13
2022-12-26T22:03:34.719Z,98254.84
2022-12-26T22:08:36.630Z,98275.94
2022-12-26T22:13:41.377Z,98290.69
2022-12-26T22:18:46.365Z,98296.34
2022-12-26T22:23:52.094Z,98304.56
2022-12-26T22:28:54.968Z,98318.16
2022-12-26T22:33:59.021Z,98320.44
2022-12-26T22:39:01.097Z,98331.88
2022-12-26T22:44:03.023Z,98352.84
2022-12-26T22:49:04.903Z,98368.81
2022-12-26T22:54:06.832Z,98377.09
2022-12-26T22:59:11.350Z,98380.22
2022-12-26T23:04:13.406Z,98397.09
2022-12-26T23:09:16.537Z,98406.03
2022-12-26T23:14:18.500Z,98425.78
2022-12-26T23:20:06.705Z,98433.53
2022-12-26T23:25:11.893Z,98442.72
2022-12-26T23:30:20.124Z,98454.53
2022-12-26T23:35:23.431Z,98462.50
2022-12-26T23:40:25.266Z,98468.44
2022-12-26T23:45:27.132Z,98486.50
2022-12-26T23:50:29.024Z,98488.41
2022-12-26T23:55:30.904Z,98488.91
